createdAt,value
2022-08-04T00:02:18.926Z,35.43
2022-08-04T00:04:53.729Z,35.13
2022-08-04T00:07:44.991Z,35.54
2022-08-04T00:10:18.165Z,34.98
2022-08-04T00:12:51.099Z,35.32
2022-08-04T00:15:19.577Z,34.97
2022-08-04T00:17:54.855Z,35.63
2022-08-04T00:20:23.503Z,35.26
2022-08-04T00:22:53.032Z,35.50
2022-08-04T00:25:20.189Z,35.10
2022-08-04T00:27:47.768Z,35.74
2022-08-04T00:30:14.784Z,34.91
2022-08-04T00:32:42.545Z,34.97
2022-08-04T00:35:13.064Z,34.87
2022-08-04T00:37:42.786Z,35.09
2022-08-04T00:40:50.316Z,35.33
2022-08-04T00:43:56.461Z,35.42
2022-08-04T00:47:08.691Z,35.40
2022-08-04T00:50:08.268Z,35.46
2022-08-04T00:52:47.104Z,35.29
2022-08-04T00:56:07.113Z,35.60
2022-08-04T00:58:43.888Z,35.52
2022-08-04T01:02:08.620Z,35.94
2022-08-04T01:05:28.379Z,35.66
2022-08-04T01:08:43.474Z,35.85
2022-08-04T01:11:29.273Z,35.89
2022-08-04T01:14:32.324Z,36.06
2022-08-04T01:17:21.791Z,35.72
2022-08-04T01:19:57.743Z,35.81
2022-08-04T01:22:33.549Z,35.57
2022-08-04T01:25:19.912Z,35.50
2022-08-04T01:28:42.882Z,35.66
2022-08-04T01:31:47.117Z,36.00
2022-08-04T01:34:15.997Z,35.66
2022-08-04T01:36:55.222Z,36.18
2022-08-04T01:39:41.377Z,36.16
2022-08-04T01:42:11.389Z,36.02
2022-08-04T01:44:41.394Z,35.97
2022-08-04T01:47:09.840Z,36.33
2022-08-04T01:49:40.427Z,36.07
2022-08-04T01:52:10.188Z,36.48
2022-08-04T01:54:42.612Z,36.22
2022-08-04T01:57:38.552Z,36.33
2022-08-04T02:00:04.883Z,36.07
2022-08-04T02:02:32.247Z,35.99
2022-08-04T02:04:59.387Z,36.36
2022-08-04T02:07:45.201Z,35.79
2022-08-04T02:10:29.175Z,35.96
2022-08-04T02:13:33.112Z,35.94
2022-08-04T02:16:21.485Z,36.25
2022-08-04T02:19:03.300Z,35.78
2022-08-04T02:21:42.259Z,36.42
2022-08-04T02:24:19.663Z,36.57
2022-08-04T02:26:53.332Z,36.52
2022-08-04T02:29:34.401Z,36.49
2022-08-04T02:32:07.001Z,37.34
2022-08-04T02:34:51.236Z,37.22
2022-08-04T02:37:20.778Z,37.36
2022-08-04T02:39:53.872Z,37.27
2022-08-04T02:42:21.278Z,37.23
2022-08-04T02:44:52.300Z,38.44
2022-08-04T02:47:24.609Z,38.27
2022-08-04T02:50:14.424Z,38.69
2022-08-04T02:53:00.496Z,38.76
2022-08-04T02:55:29.994Z,39.04
2022-08-04T02:58:00.204Z,38.97
2022-08-04T03:00:27.863Z,39.53
2022-08-04T03:03:16.675Z,39.68
2022-08-04T03:06:11.297Z,39.75
2022-08-04T03:09:24.023Z,40.08
2022-08-04T03:12:20.004Z,39.76
2022-08-04T03:15:24.116Z,40.11
2022-08-04T03:18:15.324Z,40.46
2022-08-04T03:21:24.183Z,40.33
2022-08-04T03:24:47.041Z,40.75
2022-08-04T03:27:51.190Z,40.93
2022-08-04T03:30:42.868Z,40.24
2022-08-04T03:33:37.861Z,40.26
2022-08-04T03:36:43.514Z,40.04
2022-08-04T03:39:28.743Z,39.86
2022-08-04T03:42:04.076Z,39.54
2022-08-04T03:45:24.834Z,39.43
2022-08-04T03:48:13.804Z,39.48
2022-08-04T03:51:35.159Z,39.77
2022-08-04T03:54:27.656Z,39.39
2022-08-04T03:57:15.728Z,39.39
2022-08-04T04:00:07.810Z,39.56
2022-08-04T04:03:28.769Z,39.37
2022-08-04T04:06:53.791Z,39.69
2022-08-04T04:09:56.752Z,39.19
2022-08-04T04:12:49.039Z,39.41
2022-08-04T04:15:53.487Z,39.44
2022-08-04T04:18:50.074Z,39.26
2022-08-04T04:21:54.329Z,39.20
2022-08-04T04:24:52.742Z,39.56
2022-08-04T04:27:57.163Z,39.61
2022-08-04T04:30:56.959Z,39.70
2022-08-04T04:33:52.402Z,39.64
2022-08-04T04:36:49.104Z,39.39
2022-08-04T04:39:32.767Z,39.48
2022-08-04T04:42:48.844Z,39.71
2022-08-04T04:46:00.170Z,39.46
2022-08-04T04:48:57.238Z,39.69
2022-08-04T04:51:50.655Z,39.96
2022-08-04T04:54:43.821Z,40.17
2022-08-04T04:57:18.572Z,39.94
2022-08-04T05:00:05.760Z,39.87
2022-08-04T05:03:18.893Z,39.87
2022-08-04T05:06:28.263Z,40.12
2022-08-04T05:09:52.179Z,40.08
2022-08-04T05:14:32.885Z,40.27
2022-08-04T05:15:25.489Z,40.10
2022-08-04T05:17:56.850Z,40.18
2022-08-04T05:20:40.806Z,40.04
2022-08-04T05:23:13.304Z,40.39
2022-08-04T05:25:40.167Z,40.13
2022-08-04T05:28:30.027Z,40.32
2022-08-04T05:31:06.170Z,40.32
2022-08-04T05:33:42.851Z,40.59
2022-08-04T05:36:33.013Z,40.53
2022-08-04T05:39:13.127Z,40.72
2022-08-04T05:41:46.328Z,40.36
2022-08-04T05:44:23.738Z,40.35
2022-08-04T05:46:55.995Z,40.24
2022-08-04T05:49:28.855Z,40.13
2022-08-04T05:52:03.794Z,39.93
2022-08-04T05:54:34.232Z,39.64
2022-08-04T05:57:07.031Z,39.60
2022-08-04T05:59:39.339Z,39.60
2022-08-04T06:02:09.490Z,39.29
2022-08-04T06:04:41.123Z,39.57
2022-08-04T06:07:11.183Z,39.37
2022-08-04T06:09:38.808Z,39.31
2022-08-04T06:12:25.225Z,39.35
2022-08-04T06:14:59.313Z,39.49
2022-08-04T06:19:56.436Z,39.26
2022-08-04T06:20:37.305Z,39.11
2022-08-04T06:23:15.657Z,39.19
2022-08-04T06:25:57.132Z,39.26
2022-08-04T06:28:25.919Z,39.13
2022-08-04T06:30:55.567Z,38.71
2022-08-04T06:33:54.928Z,38.60
2022-08-04T06:36:22.527Z,38.22
2022-08-04T06:38:58.539Z,38.44
2022-08-04T06:41:28.856Z,38.27
2022-08-04T06:44:01.693Z,38.46
2022-08-04T06:46:30.558Z,37.99
2022-08-04T06:48:58.204Z,38.37
2022-08-04T06:51:36.241Z,38.18
2022-08-04T06:54:08.290Z,37.83
2022-08-04T06:56:36.870Z,37.76
2022-08-04T06:59:04.715Z,37.76
2022-08-04T07:01:32.719Z,37.89
2022-08-04T07:04:00.392Z,37.94
2022-08-04T07:06:27.800Z,37.83
2022-08-04T07:08:56.377Z,37.95
2022-08-04T07:11:24.885Z,37.66
2022-08-04T07:13:52.338Z,37.34
2022-08-04T07:16:21.822Z,37.47
2022-08-04T07:18:58.192Z,37.55
2022-08-04T07:21:37.525Z,37.42
2022-08-04T07:24:05.027Z,37.40
2022-08-04T07:26:32.069Z,37.50
2022-08-04T07:28:59.663Z,37.09
2022-08-04T07:31:34.199Z,37.07
2022-08-04T07:34:17.224Z,36.99
2022-08-04T07:36:55.544Z,37.53
2022-08-04T07:39:30.145Z,37.20
2022-08-04T07:42:01.167Z,36.73
2022-08-04T07:44:33.581Z,36.80
2022-08-04T07:47:03.579Z,37.15
2022-08-04T07:49:54.257Z,36.86
2022-08-04T07:52:18.066Z,36.80
2022-08-04T07:54:45.559Z,36.97
2022-08-04T07:57:19.508Z,36.64
2022-08-04T07:59:59.620Z,36.96
2022-08-04T08:02:27.102Z,36.96
2022-08-04T08:04:54.349Z,36.12
2022-08-04T08:07:21.636Z,35.75
2022-08-04T08:09:48.885Z,35.80
2022-08-04T08:12:37.544Z,35.87
2022-08-04T08:15:05.640Z,36.54
2022-08-04T08:17:58.878Z,35.58
2022-08-04T08:20:29.894Z,35.52
2022-08-04T08:22:58.363Z,35.88
2022-08-04T08:25:25.458Z,35.12
2022-08-04T08:27:56.006Z,35.61
2022-08-04T08:30:25.203Z,34.93
2022-08-04T08:33:14.867Z,34.64
2022-08-04T08:35:54.824Z,35.71
2022-08-04T08:38:50.979Z,35.40
2022-08-04T08:42:05.068Z,34.30
2022-08-04T08:45:03.197Z,34.69
2022-08-04T08:48:05.279Z,34.18
2022-08-04T08:51:18.273Z,34.20
2022-08-04T08:54:11.458Z,34.44
2022-08-04T08:57:14.885Z,33.86
2022-08-04T09:00:12.041Z,33.46
2022-08-04T09:03:35.737Z,33.36
2022-08-04T09:06:27.912Z,33.13
2022-08-04T09:09:36.455Z,33.21
2022-08-04T09:12:53.562Z,34.38
2022-08-04T09:16:16.433Z,33.31
2022-08-04T09:19:38.595Z,32.40
2022-08-04T09:22:28.346Z,32.68
2022-08-04T09:25:11.062Z,32.77
2022-08-04T09:28:11.235Z,32.94
2022-08-04T09:30:49.027Z,31.99
2022-08-04T09:33:44.569Z,32.66
2022-08-04T09:36:35.954Z,32.83
2022-08-04T09:39:37.021Z,32.57
2022-08-04T09:42:29.338Z,32.64
2022-08-04T09:45:26.567Z,32.63
2022-08-04T09:48:09.989Z,31.62
2022-08-04T09:50:50.038Z,32.24
2022-08-04T09:54:30.619Z,31.91
2022-08-04T09:57:29.867Z,32.08
2022-08-04T10:00:10.901Z,31.34
2022-08-04T10:02:56.928Z,31.46
2022-08-04T10:05:36.743Z,31.88
2022-08-04T10:08:23.088Z,32.07
2022-08-04T10:11:21.373Z,31.39
2022-08-04T10:14:02.607Z,30.86
2022-08-04T10:17:01.353Z,30.47
2022-08-04T10:19:35.033Z,30.21
2022-08-04T10:22:40.604Z,30.13
2022-08-04T10:26:06.994Z,29.35
2022-08-04T10:28:46.368Z,30.19
2022-08-04T10:31:29.547Z,30.51
2022-08-04T10:34:27.684Z,29.58
2022-08-04T10:37:55.361Z,29.53
2022-08-04T10:40:36.624Z,28.82
2022-08-04T10:43:29.211Z,27.69
2022-08-04T10:46:02.209Z,27.64
2022-08-04T10:48:50.534Z,28.87
2022-08-04T10:51:57.753Z,29.58
2022-08-04T10:55:06.831Z,28.46
2022-08-04T10:57:52.483Z,27.29
2022-08-04T11:00:26.683Z,28.21
2022-08-04T11:02:58.600Z,27.25
2022-08-04T11:05:52.176Z,24.71
2022-08-04T11:08:35.512Z,26.29
2022-08-04T11:11:21.349Z,26.94
2022-08-04T11:14:04.840Z,26.61
2022-08-04T11:16:57.644Z,27.48
2022-08-04T11:20:31.788Z,26.58
2022-08-04T11:23:04.951Z,27.08
2022-08-04T11:26:03.684Z,25.48
2022-08-04T11:29:03.617Z,25.69
2022-08-04T11:31:40.589Z,25.92
2022-08-04T11:34:24.852Z,25.86
2022-08-04T11:37:14.947Z,25.37
2022-08-04T11:40:04.059Z,25.21
2022-08-04T11:42:43.044Z,25.12
2022-08-04T11:45:19.753Z,22.46
2022-08-04T11:48:12.720Z,23.71
2022-08-04T11:50:45.052Z,23.60
2022-08-04T11:53:19.462Z,23.62
2022-08-04T11:56:07.401Z,23.59
2022-08-04T11:58:37.361Z,22.87
2022-08-04T12:01:39.620Z,21.39
2022-08-04T12:04:45.249Z,23.34
2022-08-04T12:08:04.009Z,22.32
2022-08-04T12:10:53.828Z,22.65
2022-08-04T12:13:58.713Z,20.83
2022-08-04T12:16:59.065Z,21.37
2022-08-04T12:20:05.261Z,21.29
2022-08-04T12:22:45.835Z,21.86
2022-08-04T12:25:27.504Z,22.74
2022-08-04T12:28:05.397Z,22.70
2022-08-04T12:30:58.255Z,20.98
2022-08-04T12:34:03.645Z,20.69
2022-08-04T12:36:31.575Z,20.15
2022-08-04T12:39:18.887Z,19.74
2022-08-04T12:42:01.328Z,18.96
2022-08-04T12:44:42.768Z,19.24
2022-08-04T12:47:27.887Z,18.12
2022-08-04T12:50:02.885Z,19.06
2022-08-04T12:53:05.159Z,20.23
2022-08-04T12:55:35.113Z,18.91
2022-08-04T12:58:42.898Z,18.18
2022-08-04T13:02:10.270Z,18.37
2022-08-04T13:04:11.079Z,17.15
2022-08-04T13:06:41.187Z,18.49
2022-08-04T13:09:18.532Z,18.90
2022-08-04T13:11:59.154Z,18.69
2022-08-04T13:14:35.222Z,19.26
2022-08-04T13:17:02.490Z,18.32
2022-08-04T13:19:31.098Z,18.38
2022-08-04T13:22:03.015Z,18.91
2022-08-04T13:24:37.585Z,18.68
2022-08-04T13:27:23.651Z,19.42
2022-08-04T13:30:00.674Z,19.15
2022-08-04T13:32:31.689Z,18.40
2022-08-04T13:35:01.661Z,19.03
2022-08-04T13:37:36.690Z,18.01
2022-08-04T13:40:10.382Z,18.22
2022-08-04T13:42:38.873Z,17.76
2022-08-04T13:45:08.718Z,17.37
2022-08-04T13:47:40.104Z,18.76
2022-08-04T13:50:27.395Z,17.08
2022-08-04T13:52:57.425Z,17.94
2022-08-04T13:55:26.087Z,17.95
2022-08-04T13:58:11.060Z,17.87
2022-08-04T14:00:45.341Z,17.91
2022-08-04T14:03:29.036Z,17.73
2022-08-04T14:06:42.837Z,17.68
2022-08-04T14:09:16.992Z,17.56
2022-08-04T14:12:10.825Z,17.62
2022-08-04T14:14:53.724Z,17.20
2022-08-04T14:17:29.940Z,17.70
2022-08-04T14:19:59.935Z,17.12
2022-08-04T14:22:26.892Z,17.62
2022-08-04T14:25:16.922Z,17.46
2022-08-04T14:27:53.780Z,16.81
2022-08-04T14:30:35.415Z,17.76
2022-08-04T14:34:02.662Z,16.92
2022-08-04T14:36:04.198Z,17.41
2022-08-04T14:38:45.332Z,17.73
2022-08-04T14:41:13.497Z,16.77
2022-08-04T14:44:05.077Z,16.50
2022-08-04T14:46:51.645Z,16.85
2022-08-04T14:49:19.308Z,16.50
2022-08-04T14:51:57.312Z,17.01
2022-08-04T14:54:35.375Z,15.25
2022-08-04T14:57:10.105Z,15.52
2022-08-04T14:59:41.690Z,15.20
2022-08-04T15:02:29.990Z,15.55
2022-08-04T15:04:59.100Z,15.35
2022-08-04T15:07:26.797Z,15.67
2022-08-04T15:09:54.652Z,15.26
2022-08-04T15:12:22.759Z,15.63
2022-08-04T15:14:49.935Z,15.38
2022-08-04T15:17:30.227Z,15.32
2022-08-04T15:19:58.280Z,15.37
2022-08-04T15:22:25.557Z,15.21
2022-08-04T15:24:55.609Z,15.07
2022-08-04T15:27:28.505Z,15.51
2022-08-04T15:30:02.842Z,16.08
2022-08-04T15:33:05.874Z,16.12
2022-08-04T15:35:39.312Z,15.81
2022-08-04T15:39:04.328Z,17.00
2022-08-04T15:41:54.725Z,15.80
2022-08-04T15:44:37.262Z,15.29
2022-08-04T15:47:06.508Z,16.26
2022-08-04T15:49:33.696Z,16.58
2022-08-04T15:52:12.443Z,15.06
2022-08-04T15:55:38.762Z,16.56
2022-08-04T15:58:13.636Z,16.33
2022-08-04T16:01:03.467Z,16.43
2022-08-04T16:04:00.230Z,15.88
2022-08-04T16:06:22.911Z,15.77
2022-08-04T16:08:58.747Z,15.34
2022-08-04T16:11:43.756Z,16.22
2022-08-04T16:14:11.180Z,16.23
2022-08-04T16:16:38.458Z,16.20
2022-08-04T16:20:01.571Z,16.45
2022-08-04T16:22:43.048Z,16.90
2022-08-04T16:25:11.017Z,16.99
2022-08-04T16:28:07.172Z,17.15
2022-08-04T16:30:41.049Z,16.30
2022-08-04T16:33:09.400Z,16.44
2022-08-04T16:35:42.271Z,16.32
2022-08-04T16:38:15.301Z,14.50
2022-08-04T16:40:45.758Z,15.67
2022-08-04T16:43:18.444Z,16.15
2022-08-04T16:45:49.836Z,15.55
2022-08-04T16:48:23.388Z,15.75
2022-08-04T16:51:10.178Z,16.15
2022-08-04T16:54:04.285Z,15.01
2022-08-04T16:56:35.300Z,16.62
2022-08-04T16:59:11.419Z,15.67
2022-08-04T17:01:47.820Z,15.99
2022-08-04T17:04:15.083Z,14.83
2022-08-04T17:06:46.217Z,15.42
2022-08-04T17:09:18.865Z,15.54
2022-08-04T17:11:47.835Z,14.54
2022-08-04T17:14:31.373Z,15.12
2022-08-04T17:17:01.459Z,14.57
2022-08-04T17:19:28.635Z,15.32
2022-08-04T17:22:05.019Z,15.55
2022-08-04T17:24:38.771Z,14.91
2022-08-04T17:28:09.909Z,15.09
2022-08-04T17:29:54.802Z,15.34
2022-08-04T17:32:23.628Z,15.79
2022-08-04T17:34:57.172Z,15.94
2022-08-04T17:37:40.673Z,15.30
2022-08-04T17:40:22.548Z,15.77
2022-08-04T17:44:01.377Z,15.69
2022-08-04T17:46:30.059Z,16.47
2022-08-04T17:49:12.309Z,16.29
2022-08-04T17:52:05.733Z,16.36
2022-08-04T17:54:39.097Z,16.60
2022-08-04T17:57:22.234Z,16.20
2022-08-04T17:59:59.456Z,16.44
2022-08-04T18:05:54.004Z,16.76
2022-08-04T18:08:39.724Z,17.09
2022-08-04T18:11:04.814Z,16.88
2022-08-04T18:13:42.650Z,16.95
2022-08-04T18:16:22.759Z,16.81
2022-08-04T18:19:14.595Z,17.07
2022-08-04T18:21:46.797Z,17.78
2022-08-04T18:24:35.586Z,17.38
2022-08-04T18:27:30.036Z,17.18
2022-08-04T18:30:34.287Z,17.61
2022-08-04T18:33:24.531Z,17.84
2022-08-04T18:36:32.465Z,17.95
2022-08-04T18:38:23.280Z,17.84
2022-08-04T18:40:53.055Z,18.27
2022-08-04T18:43:28.245Z,18.08
2022-08-04T18:45:59.458Z,18.69
2022-08-04T18:48:36.806Z,19.03
2022-08-04T18:51:10.227Z,18.89
2022-08-04T18:53:55.332Z,19.00
2022-08-04T18:56:31.566Z,19.19
2022-08-04T18:59:01.644Z,19.17
2022-08-04T19:02:15.989Z,19.01
2022-08-04T19:04:32.192Z,19.53
2022-08-04T19:07:28.717Z,19.36
2022-08-04T19:09:51.147Z,20.11
2022-08-04T19:12:26.965Z,19.47
2022-08-04T19:15:08.445Z,20.13
2022-08-04T19:17:53.808Z,19.70
2022-08-04T19:20:26.711Z,20.00
2022-08-04T19:24:27.807Z,19.64
2022-08-04T19:28:36.552Z,20.91
2022-08-04T19:31:07.051Z,20.59
2022-08-04T19:33:58.867Z,21.11
2022-08-04T19:36:27.923Z,21.28
2022-08-04T19:39:09.181Z,21.64
2022-08-04T19:42:04.347Z,21.53
2022-08-04T19:44:29.935Z,22.03
2022-08-04T19:47:00.784Z,22.56
2022-08-04T19:50:05.232Z,22.38
2022-08-04T19:52:34.186Z,22.46
2022-08-04T19:57:52.435Z,22.29
2022-08-04T20:00:33.346Z,22.87
2022-08-04T20:03:11.737Z,23.94
2022-08-04T20:08:32.731Z,23.39
2022-08-04T20:11:00.435Z,23.05
2022-08-04T20:13:37.142Z,23.13
2022-08-04T20:16:28.897Z,22.95
2022-08-04T20:18:55.488Z,22.96
2022-08-04T20:21:29.603Z,22.61
2022-08-04T20:24:37.725Z,22.64
2022-08-04T20:26:59.960Z,22.46
2022-08-04T20:29:40.395Z,23.07
2022-08-04T20:32:09.582Z,22.86
2022-08-04T20:34:38.206Z,22.68
2022-08-04T20:37:10.141Z,22.89
2022-08-04T20:39:38.135Z,22.83
2022-08-04T20:42:06.495Z,22.89
2022-08-04T20:44:33.754Z,23.32
2022-08-04T20:47:01.607Z,23.14
2022-08-04T20:49:35.394Z,22.85
2022-08-04T20:52:13.245Z,23.10
2022-08-04T20:54:48.359Z,23.50
2022-08-04T20:57:16.901Z,23.80
2022-08-04T20:59:57.771Z,23.51
2022-08-04T21:02:27.646Z,23.68
2022-08-04T21:04:55.004Z,23.52
2022-08-04T21:07:24.133Z,23.92
2022-08-04T21:09:52.087Z,23.49
2022-08-04T21:12:28.613Z,23.66
2022-08-04T21:15:13.548Z,24.52
2022-08-04T21:17:58.931Z,24.02
2022-08-04T21:20:31.365Z,24.28
2022-08-04T21:23:02.252Z,23.97
2022-08-04T21:25:30.925Z,24.05
2022-08-04T21:27:58.761Z,23.55
2022-08-04T21:30:27.047Z,23.99
2022-08-04T21:32:55.176Z,23.90
2022-08-04T21:35:36.898Z,24.78
2022-08-04T21:38:17.077Z,24.24
2022-08-04T21:41:01.499Z,24.76
2022-08-04T21:43:42.322Z,25.98
2022-08-04T21:46:11.391Z,24.82
2022-08-04T21:48:39.032Z,24.84
2022-08-04T21:51:56.775Z,24.64
2022-08-04T21:54:06.979Z,24.83
2022-08-04T21:56:34.641Z,26.81
2022-08-04T21:59:05.753Z,27.34
2022-08-04T22:01:51.883Z,27.94
2022-08-04T22:04:19.911Z,28.60
2022-08-04T22:06:51.807Z,27.96
2022-08-04T22:09:21.945Z,27.67
2022-08-04T22:11:51.576Z,27.59
2022-08-04T22:14:27.212Z,26.29
2022-08-04T22:16:58.521Z,26.75
2022-08-04T22:19:54.989Z,26.47
2022-08-04T22:25:12.340Z,26.03
2022-08-04T22:28:00.747Z,25.84
2022-08-04T22:30:33.301Z,26.64
2022-08-04T22:33:08.151Z,25.56
2022-08-04T22:35:48.822Z,25.91
2022-08-04T22:38:24.146Z,25.97
2022-08-04T22:41:03.338Z,26.60
2022-08-04T22:43:32.124Z,25.80
2022-08-04T22:46:05.396Z,26.13
2022-08-04T22:48:36.108Z,26.28
2022-08-04T22:51:05.729Z,25.88
2022-08-04T22:53:34.865Z,26.46
2022-08-04T22:56:09.327Z,26.47
2022-08-04T22:58:45.510Z,25.85
2022-08-04T23:01:18.777Z,26.28
2022-08-04T23:03:55.156Z,26.57
2022-08-04T23:06:24.631Z,26.50
2022-08-04T23:08:52.520Z,26.85
2022-08-04T23:11:19.557Z,26.42
2022-08-04T23:13:47.207Z,27.48
2022-08-04T23:16:17.088Z,27.22
2022-08-04T23:18:48.887Z,26.76
2022-08-04T23:21:17.386Z,26.98
2022-08-04T23:23:55.689Z,26.67
2022-08-04T23:26:31.565Z,26.61
2022-08-04T23:28:59.063Z,26.86
2022-08-04T23:31:40.528Z,26.76
2022-08-04T23:34:09.106Z,26.62
2022-08-04T23:36:39.472Z,27.57
2022-08-04T23:39:07.281Z,27.22
2022-08-04T23:41:54.729Z,28.08
2022-08-04T23:44:26.513Z,28.40
2022-08-04T23:47:01.410Z,28.06
2022-08-04T23:49:43.492Z,28.46
2022-08-04T23:52:27.781Z,31.20
2022-08-04T23:54:59.192Z,31.59
2022-08-04T23:57:31.406Z,32.30
